Time;durP1;ratioP1;P1;durP2;ratioP2;P2;SDS_P1;SDS_P2;PMS_P1;PMS_P2;Temp;Humidity;BMP_temperature;BMP_pressure;BME280_temperature;BME280_humidity;BME280_pressure;Samples;Min_cycle;Max_cycle;Signal;HPM_P1;HPM_P2
2022/05/17 00:01:59;;;;;;;20.90;9.37;;;;;;;;;;4952821;28;20276;-43
2022/05/17 00:04:25;;;;;;;15.13;8.63;;;;;;;;;;4951096;28;20580;-43
2022/05/17 00:06:51;;;;;;;17.90;9.83;;;;;;;;;;4954001;28;20281;-43
2022/05/17 00:09:18;;;;;;;15.80;9.10;;;;;;;;;;4951665;28;20182;-44
2022/05/17 00:11:45;;;;;;;17.90;10.00;;;;;;;;;;4956930;28;20228;-43
2022/05/17 00:14:11;;;;;;;15.63;10.60;;;;;;;;;;4953146;28;20209;-43
2022/05/17 00:16:37;;;;;;;13.87;10.17;;;;;;;;;;4956518;28;20249;-43
2022/05/17 00:19:04;;;;;;;15.57;10.60;;;;;;;;;;4953311;28;20210;-43
2022/05/17 00:21:30;;;;;;;14.77;9.90;;;;;;;;;;4951183;28;20190;-43
2022/05/17 00:23:56;;;;;;;15.13;8.90;;;;;;;;;;4956165;28;20182;-43
2022/05/17 00:26:22;;;;;;;17.37;10.77;;;;;;;;;;4951801;28;20528;-43
2022/05/17 00:28:48;;;;;;;18.20;12.27;;;;;;;;;;4954562;28;20961;-43
2022/05/17 00:31:14;;;;;;;19.90;11.50;;;;;;;;;;4951430;28;20186;-43
2022/05/17 00:33:40;;;;;;;19.03;12.50;;;;;;;;;;4954228;28;20270;-43
2022/05/17 00:36:07;;;;;;;22.53;13.40;;;;;;;;;;4957626;28;20721;-43
2022/05/17 00:38:33;;;;;;;21.90;13.20;;;;;;;;;;4955436;28;20473;-43
2022/05/17 00:40:59;;;;;;;17.13;12.60;;;;;;;;;;4954346;28;20599;-42
2022/05/17 00:43:30;;;;;;;20.03;12.90;;;;;;;;;;4961311;28;20206;-42
2022/05/17 00:45:58;;;;;;;23.70;13.60;;;;;;;;;;4956694;28;20708;-43
2022/05/17 00:48:24;;;;;;;16.17;12.83;;;;;;;;;;4957399;28;20558;-43
2022/05/17 00:50:51;;;;;;;17.50;13.80;;;;;;;;;;4956600;28;20296;-43
2022/05/17 00:53:19;;;;;;;22.67;14.23;;;;;;;;;;4954568;28;20209;-43
2022/05/17 00:55:53;;;;;;;27.77;14.23;;;;;;;;;;4956039;28;20182;-43
2022/05/17 00:58:22;;;;;;;20.37;13.67;;;;;;;;;;4958582;28;20178;-44
2022/05/17 01:00:56;;;;;;;20.50;13.93;;;;;;;;;;4954358;28;20190;-44
2022/05/17 01:03:22;;;;;;;20.27;13.63;;;;;;;;;;4949154;28;20189;-43
2022/05/17 01:05:51;;;;;;;19.57;13.50;;;;;;;;;;4957688;28;20322;-43
2022/05/17 01:08:18;;;;;;;20.43;14.63;;;;;;;;;;4952678;28;20460;-43
2022/05/17 01:10:44;;;;;;;23.13;14.80;;;;;;;;;;4952985;28;20190;-44
2022/05/17 01:15:55;;;;;;;18.90;13.80;;;;;;;;;;4955801;28;20665;-42
2022/05/17 01:18:21;;;;;;;22.37;14.60;;;;;;;;;;4955597;28;20387;-43
2022/05/17 01:20:48;;;;;;;20.57;14.40;;;;;;;;;;4951863;28;20240;-43
2022/05/17 01:23:14;;;;;;;21.10;13.83;;;;;;;;;;4957367;28;20602;-44
2022/05/17 01:25:40;;;;;;;18.83;13.47;;;;;;;;;;4953191;28;20198;-43
2022/05/17 01:28:06;;;;;;;18.23;14.27;;;;;;;;;;4952917;28;20178;-44
2022/05/17 01:30:33;;;;;;;22.30;16.23;;;;;;;;;;4952809;28;21787;-43
2022/05/17 01:32:59;;;;;;;23.67;14.07;;;;;;;;;;4957915;28;20706;-43
2022/05/17 01:35:25;;;;;;;25.33;16.50;;;;;;;;;;4960128;28;20186;-43
2022/05/17 01:37:54;;;;;;;21.30;16.57;;;;;;;;;;4959427;28;20174;-42
2022/05/17 01:40:21;;;;;;;23.07;17.23;;;;;;;;;;4956898;28;20181;-43
2022/05/17 01:42:47;;;;;;;25.03;18.27;;;;;;;;;;4959412;28;20971;-43
2022/05/17 01:45:13;;;;;;;24.73;18.27;;;;;;;;;;4962518;28;20180;-44
2022/05/17 01:47:39;;;;;;;22.20;17.13;;;;;;;;;;4964374;28;20248;-44
2022/05/17 01:50:05;;;;;;;24.37;16.50;;;;;;;;;;4963858;28;20186;-43
2022/05/17 01:52:32;;;;;;;26.13;17.43;;;;;;;;;;4968435;28;20249;-44
2022/05/17 01:54:58;;;;;;;22.70;18.40;;;;;;;;;;4959829;28;20178;-43
2022/05/17 01:57:25;;;;;;;25.27;19.10;;;;;;;;;;4962520;28;20182;-43
2022/05/17 01:59:51;;;;;;;27.43;18.27;;;;;;;;;;4964430;28;20915;-42
2022/05/17 02:02:17;;;;;;;21.63;16.43;;;;;;;;;;4962393;28;20281;-42
2022/05/17 02:04:43;;;;;;;21.63;14.80;;;;;;;;;;4965130;28;20186;-44
2022/05/17 02:07:09;;;;;;;24.83;14.03;;;;;;;;;;4958705;28;20601;-44
2022/05/17 02:09:35;;;;;;;19.07;13.43;;;;;;;;;;4959792;28;20186;-41
2022/05/17 02:12:02;;;;;;;23.40;12.80;;;;;;;;;;4957383;28;20186;-42
2022/05/17 02:14:28;;;;;;;18.50;11.90;;;;;;;;;;4961546;28;20208;-41
2022/05/17 02:16:55;;;;;;;17.33;12.40;;;;;;;;;;4959884;28;21016;-41
2022/05/17 02:19:23;;;;;;;22.90;13.03;;;;;;;;;;4957765;28;20193;-41
2022/05/17 02:21:49;;;;;;;27.33;15.07;;;;;;;;;;4962599;28;20178;-42
2022/05/17 02:24:15;;;;;;;16.50;12.17;;;;;;;;;;4960894;28;20178;-41
2022/05/17 02:26:42;;;;;;;23.23;13.03;;;;;;;;;;4962154;28;20285;-41
2022/05/17 02:29:08;;;;;;;24.73;13.53;;;;;;;;;;4956211;28;20209;-42
2022/05/17 02:31:35;;;;;;;20.43;12.70;;;;;;;;;;4960027;28;20186;-42
2022/05/17 02:34:01;;;;;;;22.80;13.53;;;;;;;;;;4961064;28;20198;-43
2022/05/17 02:36:27;;;;;;;18.93;13.13;;;;;;;;;;4965244;28;20186;-43
2022/05/17 02:38:55;;;;;;;19.50;13.37;;;;;;;;;;4958824;28;20248;-43
2022/05/17 02:41:23;;;;;;;23.57;15.70;;;;;;;;;;4960796;28;21034;-43
2022/05/17 02:43:50;;;;;;;19.87;13.47;;;;;;;;;;4958732;28;20201;-43
2022/05/17 02:46:16;;;;;;;23.47;14.90;;;;;;;;;;4959012;28;20217;-44
2022/05/17 02:48:42;;;;;;;18.23;12.93;;;;;;;;;;4955764;28;20178;-44
2022/05/17 02:51:12;;;;;;;18.87;12.30;;;;;;;;;;4959986;28;20216;-44
2022/05/17 02:53:39;;;;;;;25.93;14.10;;;;;;;;;;4955556;28;20257;-43
2022/05/17 02:56:05;;;;;;;19.93;12.43;;;;;;;;;;4957712;28;20300;-42
2022/05/17 02:58:32;;;;;;;27.63;12.90;;;;;;;;;;4954715;28;20182;-44
2022/05/17 03:00:58;;;;;;;18.63;12.23;;;;;;;;;;4958542;28;20182;-44
2022/05/17 03:03:24;;;;;;;16.93;11.63;;;;;;;;;;4952874;28;20280;-44
2022/05/17 03:05:50;;;;;;;24.33;13.30;;;;;;;;;;4958498;28;20769;-44
2022/05/17 03:08:16;;;;;;;17.07;12.53;;;;;;;;;;4953808;28;20485;-43
2022/05/17 03:10:42;;;;;;;23.63;14.50;;;;;;;;;;4954816;28;20182;-43
2022/05/17 03:13:12;;;;;;;23.27;15.13;;;;;;;;;;4957170;28;20218;-45
2022/05/17 03:15:38;;;;;;;25.93;15.10;;;;;;;;;;4955614;28;20388;-44
2022/05/17 03:18:04;;;;;;;20.67;14.10;;;;;;;;;;4961973;28;20244;-42
2022/05/17 03:20:31;;;;;;;23.23;13.83;;;;;;;;;;4958593;28;20595;-41
2022/05/17 03:22:57;;;;;;;20.23;13.07;;;;;;;;;;4962308;28;20263;-42
2022/05/17 03:25:23;;;;;;;20.07;11.70;;;;;;;;;;4956849;28;20186;-42
2022/05/17 03:27:50;;;;;;;21.47;12.37;;;;;;;;;;4952797;28;20174;-41
2022/05/17 03:30:16;;;;;;;19.13;11.50;;;;;;;;;;4956186;28;20409;-42
2022/05/17 03:32:42;;;;;;;19.33;11.57;;;;;;;;;;4959678;28;20193;-42
2022/05/17 03:35:09;;;;;;;15.10;10.40;;;;;;;;;;4952257;28;20182;-41
2022/05/17 03:37:35;;;;;;;15.67;10.47;;;;;;;;;;4957970;28;20559;-42
2022/05/17 03:40:01;;;;;;;17.93;10.63;;;;;;;;;;4954232;28;20221;-42
2022/05/17 03:42:27;;;;;;;18.83;10.77;;;;;;;;;;4957317;28;20911;-42
2022/05/17 03:44:53;;;;;;;17.57;10.00;;;;;;;;;;4956116;28;20248;-42
2022/05/17 03:47:20;;;;;;;15.70;10.27;;;;;;;;;;4956329;28;20177;-42
2022/05/17 03:49:46;;;;;;;18.07;10.20;;;;;;;;;;4952822;28;20273;-41
2022/05/17 03:52:12;;;;;;;15.77;10.07;;;;;;;;;;4961990;28;20660;-44
2022/05/17 03:54:38;;;;;;;18.50;10.87;;;;;;;;;;4954457;28;20253;-42
2022/05/17 03:57:05;;;;;;;17.07;10.73;;;;;;;;;;4952637;28;20529;-42
2022/05/17 03:59:31;;;;;;;24.20;12.00;;;;;;;;;;4955850;28;20185;-42
2022/05/17 04:01:57;;;;;;;15.03;10.90;;;;;;;;;;4956358;28;20245;-42
2022/05/17 04:04:24;;;;;;;17.00;10.30;;;;;;;;;;4952398;28;20457;-42
2022/05/17 04:06:50;;;;;;;20.03;10.37;;;;;;;;;;4957158;28;20182;-42
2022/05/17 04:09:16;;;;;;;17.23;10.67;;;;;;;;;;4954933;28;20655;-42
2022/05/17 04:11:42;;;;;;;16.47;9.93;;;;;;;;;;4951935;28;20643;-41
2022/05/17 04:14:09;;;;;;;14.60;9.13;;;;;;;;;;4957007;28;20442;-42
2022/05/17 04:16:36;;;;;;;19.93;10.47;;;;;;;;;;4955707;28;20607;-42
2022/05/17 04:19:02;;;;;;;15.73;10.27;;;;;;;;;;4952205;28;20896;-42
2022/05/17 04:21:30;;;;;;;20.97;10.77;;;;;;;;;;4955105;28;20178;-42
2022/05/17 04:23:56;;;;;;;18.53;11.10;;;;;;;;;;4958257;28;20758;-41
2022/05/17 04:26:23;;;;;;;22.40;11.50;;;;;;;;;;4958729;28;20212;-42
2022/05/17 04:28:49;;;;;;;18.83;11.83;;;;;;;;;;4930271;28;20267;-42
2022/05/17 04:31:15;;;;;;;26.03;12.67;;;;;;;;;;4957280;28;20182;-42
2022/05/17 04:33:42;;;;;;;17.67;11.13;;;;;;;;;;4954839;28;20332;-42
2022/05/17 04:36:08;;;;;;;20.00;12.43;;;;;;;;;;4956683;28;20617;-42
2022/05/17 04:38:34;;;;;;;24.97;13.00;;;;;;;;;;4955816;28;20281;-42
2022/05/17 04:41:00;;;;;;;22.53;13.07;;;;;;;;;;4952192;28;20182;-42
2022/05/17 04:43:27;;;;;;;24.20;13.20;;;;;;;;;;4954932;28;20267;-42
2022/05/17 04:45:54;;;;;;;18.53;11.63;;;;;;;;;;4955072;28;21332;-42
2022/05/17 04:48:24;;;;;;;24.33;12.30;;;;;;;;;;4951693;28;20189;-42
2022/05/17 04:50:50;;;;;;;17.87;11.80;;;;;;;;;;4956964;28;20186;-42
2022/05/17 04:53:16;;;;;;;15.97;11.70;;;;;;;;;;4958459;28;20198;-42
2022/05/17 04:55:42;;;;;;;21.40;12.47;;;;;;;;;;4953695;28;20190;-42
2022/05/17 04:58:08;;;;;;;24.80;12.97;;;;;;;;;;4949947;28;20886;-42
2022/05/17 05:00:34;;;;;;;17.30;12.10;;;;;;;;;;4955979;28;20225;-41
2022/05/17 05:03:01;;;;;;;23.13;13.97;;;;;;;;;;4954041;28;20243;-43
2022/05/17 05:05:27;;;;;;;26.93;13.83;;;;;;;;;;4960620;28;20188;-43
2022/05/17 05:07:53;;;;;;;21.63;13.23;;;;;;;;;;4961049;28;20186;-42
2022/05/17 05:10:20;;;;;;;23.50;12.90;;;;;;;;;;4959838;28;20287;-43
2022/05/17 05:12:46;;;;;;;24.90;13.27;;;;;;;;;;4954442;28;20540;-43
2022/05/17 05:15:13;;;;;;;23.00;12.63;;;;;;;;;;4959857;28;20186;-43
2022/05/17 05:17:40;;;;;;;25.10;12.33;;;;;;;;;;4945236;28;20194;-43
2022/05/17 05:20:07;;;;;;;23.60;12.50;;;;;;;;;;4959046;28;20587;-43
2022/05/17 05:22:34;;;;;;;19.43;11.80;;;;;;;;;;4957909;28;20188;-42
2022/05/17 05:25:00;;;;;;;18.33;13.10;;;;;;;;;;4938297;28;20683;-43
2022/05/17 05:27:30;;;;;;;22.90;13.27;;;;;;;;;;4956462;28;20189;-43
2022/05/17 05:29:56;;;;;;;22.27;14.67;;;;;;;;;;4956589;28;20801;-43
2022/05/17 05:32:23;;;;;;;20.13;13.20;;;;;;;;;;4963846;28;20190;-44
2022/05/17 05:34:49;;;;;;;26.23;14.13;;;;;;;;;;4959597;28;20640;-43
2022/05/17 05:37:16;;;;;;;23.80;13.80;;;;;;;;;;4957439;28;20179;-43
2022/05/17 05:39:42;;;;;;;18.80;13.03;;;;;;;;;;4957063;28;20614;-43
2022/05/17 05:42:08;;;;;;;20.93;12.97;;;;;;;;;;4962134;28;20637;-44
2022/05/17 05:44:35;;;;;;;20.63;12.40;;;;;;;;;;4960122;28;20279;-43
2022/05/17 05:47:01;;;;;;;22.83;13.30;;;;;;;;;;4962317;28;20182;-43
2022/05/17 05:49:27;;;;;;;20.50;12.97;;;;;;;;;;4964031;28;20329;-44
2022/05/17 05:51:53;;;;;;;21.20;12.80;;;;;;;;;;4961153;28;20375;-42
2022/05/17 05:54:19;;;;;;;21.13;13.20;;;;;;;;;;4959231;28;20733;-44
2022/05/17 05:56:45;;;;;;;19.17;13.37;;;;;;;;;;4961108;28;20354;-43
2022/05/17 05:59:12;;;;;;;17.00;12.13;;;;;;;;;;4960320;28;20626;-44
2022/05/17 06:01:39;;;;;;;16.87;12.30;;;;;;;;;;4963165;28;20606;-43
2022/05/17 06:04:05;;;;;;;17.97;12.90;;;;;;;;;;4960396;28;20329;-44
2022/05/17 06:06:32;;;;;;;23.10;14.60;;;;;;;;;;4960567;28;20182;-42
2022/05/17 06:08:58;;;;;;;20.63;14.13;;;;;;;;;;4959175;28;20281;-42
2022/05/17 06:11:24;;;;;;;21.80;15.33;;;;;;;;;;4964785;28;20174;-42
2022/05/17 06:13:50;;;;;;;19.87;15.07;;;;;;;;;;4960504;28;20738;-41
2022/05/17 06:16:16;;;;;;;25.63;16.03;;;;;;;;;;4961459;28;20698;-43
2022/05/17 06:18:42;;;;;;;26.93;15.13;;;;;;;;;;4965869;28;20182;-42
2022/05/17 06:21:08;;;;;;;26.97;15.63;;;;;;;;;;4962397;28;20189;-43
2022/05/17 06:23:35;;;;;;;22.10;15.53;;;;;;;;;;4958674;28;20230;-41
2022/05/17 06:26:02;;;;;;;25.33;15.50;;;;;;;;;;4961278;28;20178;-43
2022/05/17 06:28:28;;;;;;;25.20;16.57;;;;;;;;;;4958911;28;20264;-43
2022/05/17 06:30:54;;;;;;;29.10;17.80;;;;;;;;;;4957754;28;20178;-43
2022/05/17 06:33:21;;;;;;;25.67;16.27;;;;;;;;;;4959020;28;20190;-43
2022/05/17 06:35:50;;;;;;;22.17;16.20;;;;;;;;;;4970012;28;20190;-43
2022/05/17 06:38:16;;;;;;;24.60;17.47;;;;;;;;;;4966602;28;20217;-43
2022/05/17 06:40:42;;;;;;;25.30;17.67;;;;;;;;;;4964166;28;20214;-43
2022/05/17 06:43:09;;;;;;;29.73;17.90;;;;;;;;;;4959812;28;20194;-42
2022/05/17 06:45:35;;;;;;;26.60;18.63;;;;;;;;;;4962743;28;20201;-43
2022/05/17 06:48:02;;;;;;;27.60;19.30;;;;;;;;;;4965197;28;20582;-42
2022/05/17 06:50:29;;;;;;;25.03;19.20;;;;;;;;;;4962168;28;20178;-43
2022/05/17 06:52:55;;;;;;;23.80;17.97;;;;;;;;;;4957249;28;20724;-43
2022/05/17 06:55:22;;;;;;;31.90;19.73;;;;;;;;;;4953613;28;20398;-41
2022/05/17 06:57:50;;;;;;;32.90;19.20;;;;;;;;;;4956793;28;20186;-43
2022/05/17 07:00:17;;;;;;;28.13;18.33;;;;;;;;;;4958518;28;20233;-42
2022/05/17 07:02:43;;;;;;;22.37;17.00;;;;;;;;;;4962676;28;20678;-43
2022/05/17 07:05:09;;;;;;;27.03;18.33;;;;;;;;;;4961372;28;21155;-43
2022/05/17 07:07:36;;;;;;;24.40;17.27;;;;;;;;;;4959724;28;20442;-43
2022/05/17 07:15:32;;;;;;;25.20;15.87;;;;;;;;;;4958196;28;20623;-41
2022/05/17 07:18:01;;;;;;;26.57;17.00;;;;;;;;;;4964335;28;20417;-42
2022/05/17 07:20:30;;;;;;;24.83;16.03;;;;;;;;;;4959797;28;20170;-42
2022/05/17 07:22:56;;;;;;;22.97;16.47;;;;;;;;;;4957200;28;20496;-42
2022/05/17 07:25:23;;;;;;;24.17;16.90;;;;;;;;;;4960137;28;20174;-42
2022/05/17 07:27:49;;;;;;;24.57;16.00;;;;;;;;;;4964403;28;20178;-42
2022/05/17 07:30:15;;;;;;;22.40;15.67;;;;;;;;;;4960152;28;20178;-42
2022/05/17 07:32:41;;;;;;;19.70;14.90;;;;;;;;;;4960567;28;20432;-42
2022/05/17 07:35:08;;;;;;;24.50;15.80;;;;;;;;;;4960424;28;20670;-40
2022/05/17 07:37:34;;;;;;;20.03;14.50;;;;;;;;;;4962796;28;20181;-42
2022/05/17 07:40:00;;;;;;;26.70;16.53;;;;;;;;;;4961298;28;20583;-42
2022/05/17 07:42:27;;;;;;;26.67;15.40;;;;;;;;;;4962754;28;20182;-42
2022/05/17 07:44:54;;;;;;;27.40;16.47;;;;;;;;;;4956656;28;20288;-42
2022/05/17 07:47:20;;;;;;;23.77;15.20;;;;;;;;;;4958132;28;20280;-42
2022/05/17 07:49:46;;;;;;;25.43;15.20;;;;;;;;;;4958946;28;20178;-42
2022/05/17 07:52:13;;;;;;;22.30;15.80;;;;;;;;;;4958476;28;20300;-42
2022/05/17 07:54:40;;;;;;;22.90;16.50;;;;;;;;;;4955949;28;20513;-42
2022/05/17 07:57:06;;;;;;;28.23;16.03;;;;;;;;;;4957518;28;20671;-42
2022/05/17 07:59:32;;;;;;;26.83;16.50;;;;;;;;;;4955911;28;20567;-42
2022/05/17 08:01:59;;;;;;;25.43;15.27;;;;;;;;;;4929539;28;20264;-42
2022/05/17 08:04:25;;;;;;;21.53;14.73;;;;;;;;;;4951146;28;20277;-42
2022/05/17 08:06:52;;;;;;;22.23;14.03;;;;;;;;;;4950672;28;20177;-42
2022/05/17 08:09:18;;;;;;;20.27;13.90;;;;;;;;;;4954070;28;20678;-42
2022/05/17 08:11:45;;;;;;;20.73;13.67;;;;;;;;;;4951953;28;20236;-41
2022/05/17 08:14:11;;;;;;;18.67;13.43;;;;;;;;;;4954161;28;20229;-42
2022/05/17 08:16:39;;;;;;;19.13;12.70;;;;;;;;;;4953707;28;20602;-43
2022/05/17 08:19:05;;;;;;;17.27;12.33;;;;;;;;;;4948088;28;20174;-43
2022/05/17 08:21:31;;;;;;;18.77;13.20;;;;;;;;;;4951499;28;20216;-43
2022/05/17 08:23:57;;;;;;;18.13;12.07;;;;;;;;;;4955306;28;20701;-43
2022/05/17 08:29:09;;;;;;;23.17;13.47;;;;;;;;;;4950692;28;20299;-43
2022/05/17 08:31:35;;;;;;;16.17;11.03;;;;;;;;;;4949298;28;20364;-43
2022/05/17 08:34:01;;;;;;;16.23;10.33;;;;;;;;;;4954461;28;20229;-43
2022/05/17 08:36:27;;;;;;;14.67;9.43;;;;;;;;;;4953897;28;20182;-43
2022/05/17 08:38:54;;;;;;;17.87;11.00;;;;;;;;;;4956611;28;20472;-43
2022/05/17 08:41:22;;;;;;;16.53;10.93;;;;;;;;;;4951294;28;20182;-43
2022/05/17 08:43:49;;;;;;;15.03;10.23;;;;;;;;;;4958075;28;20194;-43
2022/05/17 08:46:15;;;;;;;13.93;9.40;;;;;;;;;;4953077;28;20182;-43
2022/05/17 08:48:50;;;;;;;16.27;9.30;;;;;;;;;;4952810;28;20293;-42
2022/05/17 08:51:18;;;;;;;18.13;11.33;;;;;;;;;;4958520;28;20181;-43
2022/05/17 08:53:45;;;;;;;17.30;10.37;;;;;;;;;;4952222;28;20209;-42
2022/05/17 08:56:13;;;;;;;14.20;10.40;;;;;;;;;;4947864;28;20182;-43
2022/05/17 08:58:41;;;;;;;16.67;10.07;;;;;;;;;;4948162;28;20262;-43
2022/05/17 09:01:14;;;;;;;16.83;10.00;;;;;;;;;;4946586;28;20259;-43
2022/05/17 09:04:00;;;;;;;13.70;9.97;;;;;;;;;;4950397;28;20461;-43
2022/05/17 09:06:26;;;;;;;21.87;10.87;;;;;;;;;;4954205;28;20186;-43
2022/05/17 09:08:58;;;;;;;15.20;9.97;;;;;;;;;;4954971;28;20178;-43
2022/05/17 09:11:32;;;;;;;22.10;11.03;;;;;;;;;;4954285;28;20425;-44
2022/05/17 09:14:01;;;;;;;14.23;9.53;;;;;;;;;;4954498;28;20481;-43
2022/05/17 09:16:28;;;;;;;16.47;10.40;;;;;;;;;;4952799;28;20579;-43
2022/05/17 09:18:54;;;;;;;14.80;10.00;;;;;;;;;;4949497;28;20182;-43
2022/05/17 09:21:33;;;;;;;14.93;9.87;;;;;;;;;;4953125;28;20247;-43
2022/05/17 09:24:04;;;;;;;16.67;9.87;;;;;;;;;;4960552;28;21004;-43
2022/05/17 09:26:31;;;;;;;11.63;9.33;;;;;;;;;;4956168;28;20188;-43
2022/05/17 09:29:17;;;;;;;14.87;10.37;;;;;;;;;;4951456;28;21215;-43
2022/05/17 09:31:49;;;;;;;22.50;11.47;;;;;;;;;;4955583;28;21006;-43
2022/05/17 09:34:21;;;;;;;14.50;10.40;;;;;;;;;;4951120;28;20943;-43
2022/05/17 09:36:52;;;;;;;20.50;11.13;;;;;;;;;;4954923;28;20980;-43
2022/05/17 09:39:22;;;;;;;15.60;10.80;;;;;;;;;;4957670;28;20193;-43
2022/05/17 09:41:48;;;;;;;15.10;10.13;;;;;;;;;;4954979;28;20171;-43
2022/05/17 09:44:16;;;;;;;20.10;11.17;;;;;;;;;;4958857;28;20383;-41
2022/05/17 09:46:46;;;;;;;13.80;9.67;;;;;;;;;;4952703;28;20179;-43
2022/05/17 09:55:27;;;;;;;18.93;11.53;;;;;;;;;;4959720;28;20500;-43
2022/05/17 09:57:58;;;;;;;18.37;10.33;;;;;;;;;;4949653;28;20186;-43
2022/05/17 10:00:47;;;;;;;14.57;11.80;;;;;;;;;;4955518;28;20189;-42
2022/05/17 10:03:13;;;;;;;18.47;11.83;;;;;;;;;;4946296;28;20201;-42
2022/05/17 10:05:40;;;;;;;16.73;10.43;;;;;;;;;;4963369;28;20284;-43
2022/05/17 10:08:26;;;;;;;17.03;10.83;;;;;;;;;;4960197;28;20183;-43
2022/05/17 10:11:11;;;;;;;17.67;11.03;;;;;;;;;;4944311;28;20190;-43
2022/05/17 10:13:43;;;;;;;20.33;12.43;;;;;;;;;;4960842;28;20232;-41
2022/05/17 10:16:17;;;;;;;16.33;10.67;;;;;;;;;;4967804;28;20232;-42
2022/05/17 10:18:45;;;;;;;17.67;10.97;;;;;;;;;;4962573;28;20181;-43
2022/05/17 10:21:14;;;;;;;17.43;10.63;;;;;;;;;;4941895;28;21432;-43
2022/05/17 10:23:44;;;;;;;17.90;13.13;;;;;;;;;;4970972;28;20557;-43
2022/05/17 10:26:11;;;;;;;14.83;10.30;;;;;;;;;;4966697;28;20589;-42
2022/05/17 10:28:54;;;;;;;17.23;12.00;;;;;;;;;;4964963;28;20961;-42
2022/05/17 10:31:20;;;;;;;15.17;10.20;;;;;;;;;;4968787;28;20182;-43
2022/05/17 10:33:57;;;;;;;19.97;12.60;;;;;;;;;;4968960;28;20305;-41
2022/05/17 10:36:37;;;;;;;16.90;11.47;;;;;;;;;;4967724;28;21010;-42
2022/05/17 10:39:06;;;;;;;15.97;10.97;;;;;;;;;;4962919;28;21107;-43
2022/05/17 10:41:32;;;;;;;19.13;12.50;;;;;;;;;;4967834;28;20181;-42
2022/05/17 10:43:59;;;;;;;18.73;11.93;;;;;;;;;;4968091;28;20487;-43
2022/05/17 10:46:29;;;;;;;18.03;9.03;;;;;;;;;;4962453;28;20552;-43
2022/05/17 10:48:57;;;;;;;15.17;11.53;;;;;;;;;;4964312;28;20292;-43
2022/05/17 10:51:40;;;;;;;12.53;9.77;;;;;;;;;;4964482;28;20179;-42
2022/05/17 10:54:07;;;;;;;13.47;9.60;;;;;;;;;;4961806;28;20213;-42
2022/05/17 10:56:45;;;;;;;12.00;8.57;;;;;;;;;;4965744;28;20181;-42
2022/05/17 10:59:30;;;;;;;15.67;9.77;;;;;;;;;;4966354;28;20181;-43
2022/05/17 11:02:10;;;;;;;17.60;9.83;;;;;;;;;;4963446;28;20233;-43
2022/05/17 11:04:57;;;;;;;13.43;9.63;;;;;;;;;;4962133;28;20203;-42
2022/05/17 11:07:53;;;;;;;22.00;12.67;;;;;;;;;;4965491;28;20861;-43
2022/05/17 11:10:36;;;;;;;17.50;11.87;;;;;;;;;;4953236;28;20186;-43
2022/05/17 11:13:12;;;;;;;13.70;9.90;;;;;;;;;;4963739;28;20198;-43
2022/05/17 11:15:41;;;;;;;13.87;9.30;;;;;;;;;;4961866;28;20976;-42
2022/05/17 11:18:14;;;;;;;11.17;9.57;;;;;;;;;;4966839;28;20206;-43
2022/05/17 11:21:01;;;;;;;14.93;9.47;;;;;;;;;;4967267;28;20265;-43
2022/05/17 11:23:45;;;;;;;16.57;10.33;;;;;;;;;;4960423;28;21055;-43
2022/05/17 11:26:22;;;;;;;18.37;9.97;;;;;;;;;;4965964;28;21260;-44
2022/05/17 11:28:48;;;;;;;11.73;9.60;;;;;;;;;;4964782;28;20270;-43
2022/05/17 11:31:16;;;;;;;16.57;11.80;;;;;;;;;;4966709;28;20855;-43
2022/05/17 11:33:43;;;;;;;13.90;9.37;;;;;;;;;;4963746;28;20296;-43
2022/05/17 11:36:13;;;;;;;12.47;9.90;;;;;;;;;;4966635;28;20206;-44
2022/05/17 11:38:50;;;;;;;11.33;9.17;;;;;;;;;;4965871;28;20193;-43
2022/05/17 11:41:17;;;;;;;15.33;8.80;;;;;;;;;;4962414;28;20174;-42
2022/05/17 11:44:06;;;;;;;10.70;7.33;;;;;;;;;;4962508;28;20205;-43
2022/05/17 11:46:34;;;;;;;16.23;8.20;;;;;;;;;;4958065;28;20202;-42
2022/05/17 11:49:02;;;;;;;17.90;10.37;;;;;;;;;;4965259;28;20186;-43
2022/05/17 11:51:32;;;;;;;12.87;8.80;;;;;;;;;;4958302;28;20244;-43
2022/05/17 11:54:00;;;;;;;14.97;8.73;;;;;;;;;;4963243;28;20205;-43
2022/05/17 11:56:26;;;;;;;11.83;8.50;;;;;;;;;;4965343;28;20182;-43
2022/05/17 11:58:53;;;;;;;9.60;7.87;;;;;;;;;;4965147;28;20174;-43
2022/05/17 12:01:31;;;;;;;14.30;8.73;;;;;;;;;;4961529;28;20178;-43
2022/05/17 12:03:58;;;;;;;13.47;7.03;;;;;;;;;;4962931;28;20224;-43
2022/05/17 12:06:41;;;;;;;11.13;5.80;;;;;;;;;;4965156;28;20190;-43
2022/05/17 12:09:26;;;;;;;10.00;5.70;;;;;;;;;;4962425;28;20194;-43
2022/05/17 12:12:10;;;;;;;11.80;5.60;;;;;;;;;;4958282;28;20906;-43
2022/05/17 12:14:57;;;;;;;8.37;5.37;;;;;;;;;;4963813;28;20221;-41
2022/05/17 12:17:36;;;;;;;8.50;6.10;;;;;;;;;;4916545;28;20304;-42
2022/05/17 12:20:10;;;;;;;12.73;7.23;;;;;;;;;;4956516;28;20185;-41
2022/05/17 12:22:55;;;;;;;12.37;7.40;;;;;;;;;;4966856;28;20273;-43
2022/05/17 12:25:27;;;;;;;11.70;7.27;;;;;;;;;;4962781;28;21071;-41
2022/05/17 12:27:54;;;;;;;12.00;6.87;;;;;;;;;;4962061;28;20178;-43
2022/05/17 12:33:07;;;;;;;13.70;6.20;;;;;;;;;;4961243;28;20180;-43
2022/05/17 12:35:33;;;;;;;12.07;6.00;;;;;;;;;;4958829;28;20186;-42
2022/05/17 12:37:59;;;;;;;9.60;4.87;;;;;;;;;;4961887;28;20178;-42
2022/05/17 12:43:31;;;;;;;8.93;5.30;;;;;;;;;;4958858;28;20671;-43
2022/05/17 12:46:02;;;;;;;10.23;5.40;;;;;;;;;;4961453;28;20350;-43
2022/05/17 12:48:35;;;;;;;9.63;5.13;;;;;;;;;;4961016;28;20174;-43
2022/05/17 12:51:02;;;;;;;8.00;3.73;;;;;;;;;;4959734;28;20206;-43
2022/05/17 12:53:40;;;;;;;6.60;4.00;;;;;;;;;;4961480;28;20267;-43
2022/05/17 12:56:07;;;;;;;8.17;3.90;;;;;;;;;;4962340;28;20185;-43
2022/05/17 12:58:37;;;;;;;7.47;4.30;;;;;;;;;;4959515;28;20177;-43
2022/05/17 13:01:05;;;;;;;9.40;3.73;;;;;;;;;;4963941;28;20654;-43
2022/05/17 13:03:31;;;;;;;7.80;4.67;;;;;;;;;;4960873;28;20268;-43
2022/05/17 13:06:02;;;;;;;6.70;4.07;;;;;;;;;;4958995;28;20366;-43
2022/05/17 13:08:29;;;;;;;6.87;3.50;;;;;;;;;;4963285;28;20968;-43
2022/05/17 13:11:01;;;;;;;6.77;3.47;;;;;;;;;;4958193;28;20577;-43
2022/05/17 13:13:28;;;;;;;7.00;3.77;;;;;;;;;;4961065;28;20212;-43
2022/05/17 13:15:57;;;;;;;7.47;3.57;;;;;;;;;;4962347;28;20188;-42
2022/05/17 13:18:28;;;;;;;7.30;3.67;;;;;;;;;;4962867;28;20258;-43
2022/05/17 13:20:54;;;;;;;8.47;3.20;;;;;;;;;;4960289;28;20254;-43
2022/05/17 13:23:23;;;;;;;4.57;3.33;;;;;;;;;;4959143;28;20190;-43
2022/05/17 13:25:51;;;;;;;7.70;3.93;;;;;;;;;;4962486;28;20187;-43
2022/05/17 13:28:24;;;;;;;5.30;3.50;;;;;;;;;;4963337;28;20210;-43
2022/05/17 13:30:50;;;;;;;7.30;4.73;;;;;;;;;;4962656;28;20235;-43
2022/05/17 13:33:33;;;;;;;7.90;4.27;;;;;;;;;;4966214;28;20189;-43
2022/05/17 13:36:07;;;;;;;8.90;4.43;;;;;;;;;;4964803;28;20622;-43
2022/05/17 13:38:35;;;;;;;7.37;4.07;;;;;;;;;;4960960;28;20246;-43
2022/05/17 13:41:04;;;;;;;8.60;3.93;;;;;;;;;;4961903;28;20194;-43
2022/05/17 13:43:42;;;;;;;9.23;3.20;;;;;;;;;;4955493;28;20277;-42
2022/05/17 13:46:11;;;;;;;5.20;2.83;;;;;;;;;;4955377;28;20179;-43
2022/05/17 13:48:39;;;;;;;5.60;3.40;;;;;;;;;;4963168;28;20257;-42
2022/05/17 13:51:06;;;;;;;5.43;3.30;;;;;;;;;;4962880;28;20218;-43
2022/05/17 13:53:33;;;;;;;6.53;3.47;;;;;;;;;;4959448;28;20590;-42
2022/05/17 13:56:00;;;;;;;5.87;3.67;;;;;;;;;;4965926;28;20185;-42
2022/05/17 13:58:26;;;;;;;7.27;3.87;;;;;;;;;;4966204;28;20936;-43
2022/05/17 14:01:05;;;;;;;6.23;3.70;;;;;;;;;;4964226;28;20191;-43
2022/05/17 14:03:31;;;;;;;5.60;3.60;;;;;;;;;;4961244;28;20327;-43
2022/05/17 14:05:58;;;;;;;9.50;3.80;;;;;;;;;;4966105;28;20207;-42
2022/05/17 14:14:14;;;;;;;6.83;3.43;;;;;;;;;;4961401;28;20212;-42
2022/05/17 14:16:44;;;;;;;9.50;3.60;;;;;;;;;;4965191;28;20690;-42
2022/05/17 14:19:15;;;;;;;9.37;3.80;;;;;;;;;;4962488;28;20170;-42
2022/05/17 14:21:42;;;;;;;4.07;3.20;;;;;;;;;;4960252;28;20184;-42
2022/05/17 14:24:09;;;;;;;6.50;3.60;;;;;;;;;;4961075;28;20174;-42
2022/05/17 14:26:36;;;;;;;5.03;3.10;;;;;;;;;;4963799;28;21065;-42
2022/05/17 14:29:02;;;;;;;4.37;3.10;;;;;;;;;;4963379;28;20213;-42
2022/05/17 14:31:29;;;;;;;7.40;3.37;;;;;;;;;;4962957;28;20253;-42
2022/05/17 14:33:56;;;;;;;6.00;3.23;;;;;;;;;;4964256;28;20197;-42
2022/05/17 14:36:23;;;;;;;5.57;2.97;;;;;;;;;;4963900;28;20257;-44
2022/05/17 14:38:50;;;;;;;4.20;2.70;;;;;;;;;;4960904;28;20666;-43
2022/05/17 14:41:16;;;;;;;5.83;3.47;;;;;;;;;;4965630;28;20174;-43
2022/05/17 14:43:43;;;;;;;4.50;3.30;;;;;;;;;;4960923;28;20221;-42
2022/05/17 14:46:09;;;;;;;6.13;3.17;;;;;;;;;;4962569;28;20170;-43
2022/05/17 14:48:36;;;;;;;6.03;2.90;;;;;;;;;;4957256;28;20477;-43
2022/05/17 14:51:03;;;;;;;6.20;2.83;;;;;;;;;;4964767;28;20183;-43
2022/05/17 14:53:29;;;;;;;4.97;2.80;;;;;;;;;;4963013;28;20577;-42
2022/05/17 14:55:55;;;;;;;3.10;2.73;;;;;;;;;;4964818;28;20170;-43
2022/05/17 14:58:22;;;;;;;7.97;3.00;;;;;;;;;;4961637;28;20178;-42
2022/05/17 15:00:48;;;;;;;5.10;2.93;;;;;;;;;;4965136;28;20182;-42